createdAt,value
2023-02-18T00:01:47.581Z,11.38
2023-02-18T00:04:15.919Z,11.37
2023-02-18T00:06:44.449Z,11.37
2023-02-18T00:09:12.778Z,11.41
2023-02-18T00:11:41.086Z,11.45
2023-02-18T00:14:13.426Z,11.49
2023-02-18T00:16:44.307Z,11.49
2023-02-18T00:19:16.411Z,11.47
2023-02-18T00:21:45.147Z,11.47
2023-02-18T00:24:16.513Z,11.48
2023-02-18T00:26:45.077Z,11.54
2023-02-18T00:29:13.977Z,11.57
2023-02-18T00:31:44.774Z,11.49
2023-02-18T00:34:13.942Z,11.47
2023-02-18T00:36:43.088Z,11.46
2023-02-18T00:39:14.120Z,11.49
2023-02-18T00:41:43.277Z,11.46
2023-02-18T00:44:12.077Z,11.46
2023-02-18T00:46:41.171Z,11.45
2023-02-18T00:49:11.175Z,11.45
2023-02-18T00:51:41.713Z,11.47
2023-02-18T00:54:10.019Z,11.50
2023-02-18T00:56:39.973Z,11.51
2023-02-18T00:59:08.132Z,11.46
2023-02-18T01:01:36.221Z,11.37
2023-02-18T01:04:05.048Z,11.34
2023-02-18T01:06:35.008Z,11.42
2023-02-18T01:09:04.386Z,11.35
2023-02-18T01:11:32.655Z,11.27
2023-02-18T01:14:01.232Z,11.23
2023-02-18T01:16:31.543Z,11.27
2023-02-18T01:18:59.705Z,11.30
2023-02-18T01:21:28.159Z,11.24
2023-02-18T01:23:58.190Z,11.12
2023-02-18T01:26:26.697Z,11.05
2023-02-18T01:28:55.023Z,10.97
2023-02-18T01:31:23.270Z,10.90
2023-02-18T01:33:52.911Z,10.88
2023-02-18T01:36:22.349Z,10.82
2023-02-18T01:38:50.618Z,10.81
2023-02-18T01:41:20.268Z,10.73
2023-02-18T01:43:50.084Z,10.68
2023-02-18T01:46:21.425Z,10.67
2023-02-18T01:48:54.232Z,10.65
2023-02-18T01:51:26.663Z,10.65
2023-02-18T01:54:00.049Z,10.67
2023-02-18T01:56:35.342Z,10.71
2023-02-18T01:59:08.098Z,10.73
2023-02-18T02:01:37.711Z,10.72
2023-02-18T02:04:06.280Z,10.67
2023-02-18T02:06:35.700Z,10.71
2023-02-18T02:09:10.933Z,10.75
2023-02-18T02:11:59.110Z,10.70
2023-02-18T02:14:41.754Z,10.72
2023-02-18T02:17:18.820Z,10.68
2023-02-18T02:20:19.634Z,10.65
2023-02-18T02:23:39.918Z,10.61
2023-02-18T02:26:54.195Z,10.70
2023-02-18T02:29:46.383Z,10.69
2023-02-18T02:33:09.248Z,10.64
2023-02-18T02:35:45.604Z,10.77
2023-02-18T02:38:20.718Z,10.81
2023-02-18T02:40:56.147Z,10.81
2023-02-18T02:43:35.630Z,10.91
2023-02-18T02:46:09.622Z,10.88
2023-02-18T02:48:47.065Z,10.92
2023-02-18T02:51:22.906Z,10.86
2023-02-18T02:53:51.580Z,10.86
2023-02-18T02:56:22.431Z,10.83
2023-02-18T02:59:00.801Z,10.89
2023-02-18T03:01:43.331Z,10.90
2023-02-18T03:04:29.654Z,10.81
2023-02-18T03:07:28.013Z,10.79
2023-02-18T03:10:12.228Z,10.78
2023-02-18T03:12:50.923Z,10.93
2023-02-18T03:15:25.221Z,11.01
2023-02-18T03:18:01.301Z,11.11
2023-02-18T03:20:35.196Z,11.16
2023-02-18T03:23:10.915Z,11.11
2023-02-18T03:25:41.589Z,11.08
2023-02-18T03:28:15.497Z,11.06
2023-02-18T03:30:48.902Z,11.09
2023-02-18T03:33:21.301Z,11.04
2023-02-18T03:35:51.374Z,10.99
2023-02-18T03:38:27.163Z,10.92
2023-02-18T03:40:55.517Z,10.94
2023-02-18T03:43:24.913Z,10.94
2023-02-18T03:45:55.439Z,10.94
2023-02-18T03:48:24.462Z,10.88
2023-02-18T03:50:54.016Z,10.82
2023-02-18T03:53:24.006Z,10.91
2023-02-18T03:55:52.415Z,10.91
2023-02-18T03:58:20.824Z,10.85
2023-02-18T04:00:49.214Z,11.01
2023-02-18T04:03:17.709Z,11.04
2023-02-18T04:05:45.769Z,11.10
2023-02-18T04:08:14.169Z,11.12
2023-02-18T04:10:43.754Z,11.14
2023-02-18T04:13:12.143Z,11.13
2023-02-18T04:15:40.683Z,11.13
2023-02-18T04:18:08.882Z,11.03
2023-02-18T04:20:37.273Z,11.17
2023-02-18T04:23:05.929Z,11.32
2023-02-18T04:25:34.543Z,11.33
2023-02-18T04:28:04.010Z,11.19
2023-02-18T04:30:32.521Z,11.23
2023-02-18T04:33:00.996Z,11.24
2023-02-18T04:35:29.218Z,11.23
2023-02-18T04:37:57.409Z,11.18
2023-02-18T04:40:29.751Z,11.13
2023-02-18T04:42:58.614Z,11.17
2023-02-18T04:45:29.657Z,11.02
2023-02-18T04:47:58.005Z,11.03
2023-02-18T04:50:27.067Z,11.00
2023-02-18T04:52:55.400Z,10.98
2023-02-18T04:55:23.656Z,10.94
2023-02-18T04:57:51.966Z,10.87
2023-02-18T05:00:21.358Z,10.88
2023-02-18T05:02:51.185Z,10.99
2023-02-18T05:05:19.611Z,10.98
2023-02-18T05:07:48.020Z,10.90
2023-02-18T05:10:18.660Z,10.93
2023-02-18T05:12:47.130Z,10.85
2023-02-18T05:15:15.407Z,10.96
2023-02-18T05:17:43.943Z,10.96
2023-02-18T05:20:15.278Z,10.92
2023-02-18T05:22:43.475Z,11.10
2023-02-18T05:25:11.878Z,11.02
2023-02-18T05:27:40.086Z,11.09
2023-02-18T05:30:09.528Z,11.03
2023-02-18T05:32:38.104Z,11.10
2023-02-18T05:35:07.367Z,11.03
2023-02-18T05:37:37.326Z,10.93
2023-02-18T05:40:07.012Z,11.09
2023-02-18T05:42:35.249Z,11.09
2023-02-18T05:45:03.721Z,11.05
2023-02-18T05:47:31.925Z,11.02
2023-02-18T05:50:00.168Z,10.95
2023-02-18T05:52:28.335Z,10.94
2023-02-18T05:54:58.202Z,11.03
2023-02-18T05:57:26.750Z,11.02
2023-02-18T05:59:55.000Z,11.10
2023-02-18T06:02:23.349Z,11.09
2023-02-18T06:04:51.839Z,10.94
2023-02-18T06:07:20.561Z,10.96
2023-02-18T06:09:49.237Z,10.79
2023-02-18T06:12:18.656Z,10.67
2023-02-18T06:14:47.357Z,10.57
2023-02-18T06:17:16.588Z,10.52
2023-02-18T06:19:44.887Z,10.74
2023-02-18T06:22:13.299Z,10.82
2023-02-18T06:24:42.095Z,10.71
2023-02-18T06:27:10.372Z,10.60
2023-02-18T06:29:40.137Z,10.64
2023-02-18T06:32:08.123Z,10.70
2023-02-18T06:34:36.458Z,10.63
2023-02-18T06:37:04.744Z,10.73
2023-02-18T06:39:33.070Z,10.79
2023-02-18T06:42:01.265Z,10.82
2023-02-18T06:44:29.998Z,11.02
2023-02-18T06:46:59.451Z,10.98
2023-02-18T06:49:27.826Z,10.89
2023-02-18T06:51:55.996Z,10.95
2023-02-18T06:54:25.151Z,10.87
2023-02-18T06:56:53.752Z,10.91
2023-02-18T06:59:22.057Z,10.83
2023-02-18T07:01:50.423Z,10.88
2023-02-18T07:04:19.995Z,10.81
2023-02-18T07:06:48.139Z,10.92
2023-02-18T07:09:16.738Z,10.84
2023-02-18T07:11:45.313Z,10.96
2023-02-18T07:14:13.637Z,11.07
2023-02-18T07:16:41.874Z,11.05
2023-02-18T07:19:10.270Z,11.02
2023-02-18T07:21:39.872Z,10.97
2023-02-18T07:24:08.378Z,11.02
2023-02-18T07:26:36.747Z,11.10
2023-02-18T07:29:04.929Z,11.05
2023-02-18T07:31:33.143Z,10.98
2023-02-18T07:34:01.849Z,11.05
2023-02-18T07:36:29.937Z,11.01
2023-02-18T07:38:59.607Z,11.00
2023-02-18T07:41:27.760Z,11.00
2023-02-18T07:43:56.149Z,11.19
2023-02-18T07:46:24.434Z,11.10
2023-02-18T07:48:52.661Z,11.33
2023-02-18T07:51:20.864Z,11.37
2023-02-18T07:53:49.199Z,11.41
2023-02-18T07:56:19.791Z,11.40
2023-02-18T07:58:48.276Z,11.56
2023-02-18T08:01:17.488Z,11.52
2023-02-18T08:03:45.779Z,11.55
2023-02-18T08:06:23.741Z,11.38
2023-02-18T08:08:52.370Z,11.50
2023-02-18T08:11:22.450Z,11.74
2023-02-18T08:13:50.671Z,11.67
2023-02-18T08:16:20.840Z,11.70
2023-02-18T08:18:49.672Z,11.74
2023-02-18T08:21:18.791Z,11.69
2023-02-18T08:23:47.206Z,11.75
2023-02-18T08:26:16.133Z,11.75
2023-02-18T08:28:47.452Z,11.81
2023-02-18T08:31:20.704Z,11.79
2023-02-18T08:33:49.860Z,11.82
2023-02-18T08:36:18.432Z,11.90
2023-02-18T08:38:47.438Z,11.82
2023-02-18T08:41:16.326Z,11.78
2023-02-18T08:43:46.953Z,11.87
2023-02-18T08:46:25.434Z,11.95
2023-02-18T08:49:04.794Z,11.93
2023-02-18T08:51:33.172Z,12.00
2023-02-18T08:54:01.793Z,12.02
2023-02-18T08:56:31.746Z,12.17
2023-02-18T08:59:01.685Z,12.11
2023-02-18T09:01:30.181Z,12.10
2023-02-18T09:04:00.052Z,12.09
2023-02-18T09:06:28.624Z,12.01
2023-02-18T09:08:57.002Z,12.02
2023-02-18T09:11:25.627Z,12.09
2023-02-18T09:13:54.057Z,12.16
2023-02-18T09:16:26.097Z,12.28
2023-02-18T09:18:54.915Z,12.31
2023-02-18T09:21:24.615Z,12.32
2023-02-18T09:23:53.346Z,12.35
2023-02-18T09:26:23.293Z,12.36
2023-02-18T09:28:53.680Z,12.33
2023-02-18T09:31:25.462Z,12.35
2023-02-18T09:33:56.160Z,12.40
2023-02-18T09:36:25.752Z,12.50
2023-02-18T09:38:54.678Z,12.61
2023-02-18T09:41:38.841Z,12.68
2023-02-18T09:44:14.328Z,12.69
2023-02-18T09:46:49.722Z,12.74
2023-02-18T09:49:22.932Z,12.79
2023-02-18T09:51:51.903Z,12.83
2023-02-18T09:54:21.409Z,12.89
2023-02-18T09:56:50.945Z,12.89
2023-02-18T09:59:21.465Z,13.00
2023-02-18T10:01:54.560Z,12.98
2023-02-18T10:04:30.161Z,12.95
2023-02-18T10:06:59.423Z,13.00
2023-02-18T10:09:32.997Z,13.04
2023-02-18T10:12:12.576Z,13.21
2023-02-18T10:14:40.721Z,13.27
2023-02-18T10:17:15.555Z,13.24
2023-02-18T10:19:47.056Z,13.06
2023-02-18T10:22:17.451Z,13.12
2023-02-18T10:24:50.629Z,12.98
2023-02-18T10:27:23.977Z,12.91
2023-02-18T10:29:52.453Z,12.84
2023-02-18T10:32:25.175Z,12.69
2023-02-18T10:34:56.237Z,12.59
2023-02-18T10:37:42.382Z,12.42
2023-02-18T10:40:16.195Z,12.43
2023-02-18T10:42:57.687Z,12.58
2023-02-18T10:45:38.181Z,12.57
2023-02-18T10:48:28.743Z,12.63
2023-02-18T10:50:57.693Z,12.56
2023-02-18T10:53:35.237Z,12.42
2023-02-18T10:56:06.827Z,12.34
2023-02-18T10:58:37.385Z,12.40
2023-02-18T11:01:09.123Z,12.41
2023-02-18T11:03:44.232Z,12.26
2023-02-18T11:06:26.282Z,12.23
2023-02-18T11:08:56.189Z,12.19
2023-02-18T11:11:27.499Z,12.22
2023-02-18T11:13:59.312Z,12.17
2023-02-18T11:16:39.493Z,12.31
2023-02-18T11:19:33.063Z,12.38
2023-02-18T11:22:10.467Z,12.39
2023-02-18T11:24:40.504Z,12.45
2023-02-18T11:27:13.005Z,12.41
2023-02-18T11:29:42.941Z,12.45
2023-02-18T11:32:14.527Z,12.57
2023-02-18T11:34:45.633Z,12.68
2023-02-18T11:37:20.567Z,12.79
2023-02-18T11:39:52.047Z,12.96
2023-02-18T11:42:22.156Z,13.08
2023-02-18T11:44:56.453Z,13.27
2023-02-18T11:47:28.627Z,13.45
2023-02-18T11:50:16.949Z,13.64
2023-02-18T11:52:47.575Z,13.84
2023-02-18T11:55:20.210Z,13.82
2023-02-18T11:57:54.167Z,13.90
2023-02-18T12:00:26.586Z,13.80
2023-02-18T12:02:59.486Z,13.57
2023-02-18T12:05:30.139Z,13.49
2023-02-18T12:08:03.078Z,13.30
2023-02-18T12:10:36.430Z,13.20
2023-02-18T12:13:08.893Z,13.15
2023-02-18T12:15:51.561Z,13.01
2023-02-18T12:18:31.361Z,12.97
2023-02-18T12:21:18.320Z,12.93
2023-02-18T12:23:55.195Z,12.93
2023-02-18T12:26:29.501Z,12.87
2023-02-18T12:29:16.328Z,12.82
2023-02-18T12:32:00.546Z,12.87
2023-02-18T12:34:45.271Z,12.83
2023-02-18T12:37:47.718Z,12.93
2023-02-18T12:40:30.917Z,12.93
2023-02-18T12:43:10.452Z,12.96
2023-02-18T12:46:05.165Z,12.83
2023-02-18T12:49:08.190Z,12.94
2023-02-18T12:51:45.669Z,12.95
2023-02-18T12:54:35.696Z,12.98
2023-02-18T12:57:21.562Z,13.12
2023-02-18T13:00:14.561Z,13.10
2023-02-18T13:03:09.292Z,13.12
2023-02-18T13:05:45.910Z,13.23
2023-02-18T13:08:30.341Z,13.18
2023-02-18T13:11:12.210Z,13.12
2023-02-18T13:13:44.275Z,13.14
2023-02-18T13:16:15.144Z,13.18
2023-02-18T13:18:48.814Z,13.26
2023-02-18T13:21:18.431Z,13.34
2023-02-18T13:23:50.804Z,13.37
2023-02-18T13:26:22.657Z,13.31
2023-02-18T13:29:10.086Z,13.30
2023-02-18T13:31:51.335Z,13.28
2023-02-18T13:34:26.765Z,13.30
2023-02-18T13:37:08.609Z,13.37
2023-02-18T13:39:38.492Z,13.34
2023-02-18T13:42:28.472Z,13.48
2023-02-18T13:45:25.713Z,13.54
2023-02-18T13:47:55.154Z,13.64
2023-02-18T13:50:29.557Z,13.67
2023-02-18T13:53:20.602Z,13.59
2023-02-18T13:55:54.827Z,13.38
2023-02-18T13:58:28.769Z,13.12
2023-02-18T14:01:03.370Z,12.99
2023-02-18T14:03:52.374Z,12.90
2023-02-18T14:06:22.889Z,12.89
2023-02-18T14:08:52.336Z,12.88
2023-02-18T14:11:41.633Z,12.73
2023-02-18T14:14:38.528Z,12.60
2023-02-18T14:17:31.524Z,12.55
2023-02-18T14:20:29.430Z,12.44
2023-02-18T14:22:58.639Z,12.46
2023-02-18T14:25:36.410Z,12.34
2023-02-18T14:28:24.052Z,12.26
2023-02-18T14:30:55.040Z,12.23
2023-02-18T14:33:23.366Z,12.16
2023-02-18T14:35:58.028Z,12.20
2023-02-18T14:38:43.223Z,12.15
2023-02-18T14:41:40.583Z,12.21
2023-02-18T14:44:30.980Z,12.17
2023-02-18T14:47:21.960Z,12.14
2023-02-18T14:49:53.573Z,12.30
2023-02-18T14:52:30.633Z,12.18
2023-02-18T14:55:01.333Z,12.16
2023-02-18T14:57:37.422Z,12.17
2023-02-18T15:00:07.553Z,12.14
2023-02-18T15:02:39.511Z,12.12
2023-02-18T15:05:17.425Z,12.16
2023-02-18T15:07:58.336Z,12.14
2023-02-18T15:10:43.300Z,12.09
2023-02-18T15:13:18.537Z,12.11
2023-02-18T15:15:51.053Z,12.11
2023-02-18T15:18:29.491Z,12.12
2023-02-18T15:20:58.269Z,12.05
2023-02-18T15:23:26.854Z,11.94
2023-02-18T15:25:55.937Z,11.82
2023-02-18T15:28:29.683Z,11.79
2023-02-18T15:30:59.356Z,11.82
2023-02-18T15:33:30.155Z,11.81
2023-02-18T15:36:17.212Z,11.81
2023-02-18T15:38:47.558Z,11.91
2023-02-18T15:41:18.062Z,11.89
2023-02-18T15:43:54.937Z,11.82
2023-02-18T15:46:26.412Z,11.62
2023-02-18T15:48:59.013Z,11.52
2023-02-18T15:51:29.584Z,11.51
2023-02-18T15:54:00.937Z,11.41
2023-02-18T15:56:33.512Z,11.35
2023-02-18T15:59:12.183Z,11.49
2023-02-18T16:01:40.720Z,11.50
2023-02-18T16:04:14.694Z,11.48
2023-02-18T16:06:47.798Z,11.42
2023-02-18T16:09:20.630Z,11.42
2023-02-18T16:11:52.021Z,11.41
2023-02-18T16:14:32.584Z,11.44
2023-02-18T16:17:22.394Z,11.41
2023-02-18T16:20:03.966Z,11.49
2023-02-18T16:22:36.529Z,11.39
2023-02-18T16:25:15.967Z,11.40
2023-02-18T16:27:53.619Z,11.36
2023-02-18T16:30:24.842Z,11.39
2023-02-18T16:32:54.781Z,11.43
2023-02-18T16:35:26.103Z,11.34
2023-02-18T16:37:57.752Z,11.31
2023-02-18T16:40:29.726Z,11.30
2023-02-18T16:43:00.487Z,11.25
2023-02-18T16:45:41.042Z,11.14
2023-02-18T16:48:18.410Z,11.20
2023-02-18T16:50:48.794Z,11.18
2023-02-18T16:53:17.292Z,11.25
2023-02-18T16:55:45.721Z,11.16
2023-02-18T16:58:14.198Z,11.13
2023-02-18T17:00:43.712Z,11.17
2023-02-18T17:03:13.721Z,11.06
2023-02-18T17:05:42.158Z,11.04
2023-02-18T17:08:20.442Z,11.14
2023-02-18T17:10:50.184Z,11.04
2023-02-18T17:13:20.272Z,11.10
2023-02-18T17:15:51.607Z,11.08
2023-02-18T17:18:21.180Z,11.12
2023-02-18T17:20:51.303Z,11.10
2023-02-18T17:23:24.320Z,11.03
2023-02-18T17:25:53.946Z,11.05
2023-02-18T17:28:23.280Z,10.97
2023-02-18T17:30:56.470Z,10.99
2023-02-18T17:33:26.468Z,11.05
2023-02-18T17:35:54.753Z,10.96
2023-02-18T17:38:25.055Z,10.88
2023-02-18T17:40:53.378Z,10.96
2023-02-18T17:43:23.857Z,10.96
2023-02-18T17:45:54.317Z,10.93
2023-02-18T17:48:23.490Z,10.83
2023-02-18T17:50:52.826Z,10.74
2023-02-18T17:53:21.332Z,10.71
2023-02-18T17:55:51.311Z,10.65
2023-02-18T17:58:19.777Z,10.69
2023-02-18T18:00:50.960Z,10.65
2023-02-18T18:03:20.760Z,10.61
2023-02-18T18:05:51.928Z,10.57
2023-02-18T18:08:20.443Z,10.47
2023-02-18T18:10:52.731Z,10.49
2023-02-18T18:13:23.912Z,10.45
2023-02-18T18:15:53.094Z,10.41
2023-02-18T18:18:21.729Z,10.41
2023-02-18T18:20:52.892Z,10.30
2023-02-18T18:23:22.422Z,10.25
2023-02-18T18:25:54.313Z,10.22
2023-02-18T18:28:24.778Z,10.17
2023-02-18T18:30:54.929Z,10.07
2023-02-18T18:33:27.025Z,10.02
2023-02-18T18:35:57.747Z,10.00
2023-02-18T18:38:27.445Z,10.08
2023-02-18T18:40:57.653Z,10.09
2023-02-18T18:43:27.466Z,10.05
2023-02-18T18:45:56.314Z,10.05
2023-02-18T18:48:25.506Z,10.15
2023-02-18T18:50:54.683Z,10.06
2023-02-18T18:53:25.806Z,10.02
2023-02-18T18:55:58.843Z,10.06
2023-02-18T18:58:29.193Z,10.22
2023-02-18T19:01:00.016Z,10.18
2023-02-18T19:03:29.679Z,10.15
2023-02-18T19:05:58.848Z,10.10
2023-02-18T19:08:27.256Z,10.28
2023-02-18T19:10:57.627Z,10.25
2023-02-18T19:13:29.379Z,10.18
2023-02-18T19:16:02.683Z,10.31
2023-02-18T19:18:33.492Z,10.17
2023-02-18T19:21:03.693Z,10.19
2023-02-18T19:23:32.296Z,10.19
2023-02-18T19:26:01.041Z,10.24
2023-02-18T19:28:32.756Z,10.19
2023-02-18T19:31:01.666Z,10.26
2023-02-18T19:33:30.146Z,10.21
2023-02-18T19:35:58.409Z,10.18
2023-02-18T19:38:26.999Z,10.20
2023-02-18T19:40:56.862Z,10.13
2023-02-18T19:43:25.352Z,10.18
2023-02-18T19:45:55.199Z,10.17
2023-02-18T19:48:23.817Z,10.19
2023-02-18T19:50:54.533Z,10.21
2023-02-18T19:53:22.873Z,10.27
2023-02-18T19:55:58.225Z,10.06
2023-02-18T19:58:27.304Z,10.05
2023-02-18T20:00:57.736Z,10.04
2023-02-18T20:03:26.519Z,10.08
2023-02-18T20:05:54.849Z,10.03
2023-02-18T20:08:23.193Z,10.05
2023-02-18T20:10:57.524Z,10.06
2023-02-18T20:13:25.898Z,10.09
2023-02-18T20:15:54.299Z,10.05
2023-02-18T20:18:23.989Z,10.03
2023-02-18T20:20:52.535Z,10.03
2023-02-18T20:23:20.711Z,10.00
2023-02-18T20:25:49.027Z,10.11
2023-02-18T20:28:17.416Z,10.13
2023-02-18T20:30:45.729Z,10.15
2023-02-18T20:33:13.928Z,10.24
2023-02-18T20:35:43.654Z,10.11
2023-02-18T20:38:11.783Z,10.11
2023-02-18T20:40:40.333Z,10.05
2023-02-18T20:43:08.617Z,10.04
2023-02-18T20:45:36.863Z,9.99
2023-02-18T20:48:05.811Z,9.95
2023-02-18T20:50:34.268Z,9.92
2023-02-18T20:53:03.827Z,9.92
2023-02-18T20:55:32.111Z,9.94
2023-02-18T20:58:00.411Z,9.88
2023-02-18T21:00:28.761Z,10.02
2023-02-18T21:02:57.573Z,9.89
2023-02-18T21:05:25.898Z,10.02
2023-02-18T21:07:54.422Z,9.95
2023-02-18T21:10:24.621Z,9.99
2023-02-18T21:12:53.305Z,10.01
2023-02-18T21:15:21.775Z,9.95
2023-02-18T21:17:49.921Z,9.89
2023-02-18T21:20:18.176Z,9.85
2023-02-18T21:22:46.690Z,9.90
2023-02-18T21:25:15.164Z,9.91
2023-02-18T21:27:44.787Z,9.86
2023-02-18T21:30:13.084Z,9.91
2023-02-18T21:32:41.428Z,9.91
2023-02-18T21:35:10.449Z,9.84
2023-02-18T21:37:39.409Z,9.84
2023-02-18T21:40:08.414Z,9.81
2023-02-18T21:42:36.588Z,9.84
2023-02-18T21:45:07.237Z,9.85
2023-02-18T21:47:36.929Z,9.90
2023-02-18T21:50:05.175Z,9.78
2023-02-18T21:52:34.794Z,9.86
2023-02-18T21:55:02.935Z,9.85
2023-02-18T21:57:31.395Z,9.89
2023-02-18T22:00:03.749Z,9.75
2023-02-18T22:02:41.916Z,9.79
2023-02-18T22:05:10.218Z,9.68
2023-02-18T22:07:38.729Z,9.67
2023-02-18T22:10:07.605Z,9.84
2023-02-18T22:12:36.045Z,9.83
2023-02-18T22:15:05.213Z,9.78
2023-02-18T22:17:33.467Z,9.76
2023-02-18T22:20:03.046Z,9.67
2023-02-18T22:22:31.128Z,9.64
2023-02-18T22:24:59.576Z,9.59
2023-02-18T22:27:27.891Z,9.57
2023-02-18T22:29:56.119Z,9.74
2023-02-18T22:32:24.653Z,9.67
2023-02-18T22:34:54.247Z,9.60
2023-02-18T22:37:24.151Z,9.67
2023-02-18T22:39:52.672Z,9.78
2023-02-18T22:42:21.105Z,9.68
2023-02-18T22:44:49.258Z,9.62
2023-02-18T22:47:17.431Z,9.63
2023-02-18T22:49:45.996Z,9.64
2023-02-18T22:52:14.420Z,9.68
2023-02-18T22:54:44.114Z,9.63
2023-02-18T22:57:14.469Z,9.57
2023-02-18T22:59:42.744Z,9.54
2023-02-18T23:02:11.244Z,9.53
2023-02-18T23:04:41.634Z,9.60
2023-02-18T23:07:10.007Z,9.53
2023-02-18T23:09:38.353Z,9.59
2023-02-18T23:12:08.533Z,9.58
2023-02-18T23:14:36.905Z,9.67
2023-02-18T23:17:14.058Z,9.62
2023-02-18T23:19:44.101Z,9.60
2023-02-18T23:22:14.287Z,9.59
2023-02-18T23:24:45.143Z,9.54
2023-02-18T23:27:18.820Z,9.49
2023-02-18T23:29:47.444Z,9.61
2023-02-18T23:32:16.102Z,9.56
2023-02-18T23:34:44.384Z,9.54
2023-02-18T23:37:14.783Z,9.58
2023-02-18T23:39:45.214Z,9.60
2023-02-18T23:42:15.245Z,9.56
2023-02-18T23:44:43.649Z,9.52
2023-02-18T23:47:12.227Z,9.55
2023-02-18T23:49:40.420Z,9.65
2023-02-18T23:52:09.361Z,9.58
2023-02-18T23:54:37.734Z,9.43
2023-02-18T23:57:05.921Z,9.35
2023-02-18T23:59:35.810Z,9.44
